Gridley, California
Current Conditions -  °F | °C
As of 3:53 PM on Wednesday 22 Oct 2014 (Local Time) from KOVE Reporting Station
Clear Clear  
Wind Chill: 73°   Ceiling: Unl
Heat Index: 73°   Visibility: 10mi
Dew Point: 42°   Wind: 8mph
Humidity: 33%   Direction: 150°SSE
Pressure: 30.01"   Gusts: NA
Location:  39.36°N, 121.69°W
Report Text: KOVE 222253Z AUTO 15007KT 10SM CLR 23/06 A3001 RMK AO2 SLP164 T02280056 $
Loading
Personal Weather Stations






























Interactive Weather Map
Tropical Storm Tracking
New forecast layout! Learn more

10-Day Weather Forecast

Advertisements
Track Severe Weather on mobile